Mattapoisett, MA

8:03 AM EST on December 11, 2016 (GMT -0500)
Head of the Harbor Weather Station | | Change Station

Elev 0 ft 41.66 °N, 70.82 °W | Updated 11 seconds ago

Clear
Clear
14.1 °F
Feels Like 14 °F
N
0.0
Wind Variable Wind from SSW

Today
High -- | Low -- °F
--% Chance of Precip.
Yesterday
High -- | Low -- °F
Precip. -- in
Pressure 30.53 in
Visibility 10.0 miles
Clouds Clear
Windchill 14 °F
Dew Point 11 °F
Humidity 90%
Rainfall 0.00 in
Snow Depth Not available.
7:00 AM 4:13 PM
Waxing Gibbous, 91% visible
METAR KEWB 111253Z 00000KT 10SM CLR M10/M13 A3052 RMK AO2 SLP337 T11001128
Pressure 30.53 in
Visibility 10.0 miles
Clouds Clear
Windchill 14 °F
Dew Point 11 °F
Humidity 90%
Rainfall 0.00 in
Snow Depth Not available.
7:00 AM 4:13 PM
Waxing Gibbous, 91% visible
METAR KEWB 111253Z 00000KT 10SM CLR M10/M13 A3052 RMK AO2 SLP337 T11001128

10-Day Weather Forecast

Almanac

Astronomy

Dec. 11, 2016 Rise Set
Actual Time
Civil Twilight
Nautical Twilight
Astronomical Twilight
Moon
Length of Visible Light
Length of Day
Tomorrow will be .
, % of the Moon is Illuminated

Today's Extremes

State Highs State Lows

Community

WunderPhotos

Upload Photos

1,956,714 photos uploaded!

WunderBlog® & News

Nearby

Air Quality

  Air Quality AQ Index Pollutant
Not available.

Snow Depth

Station Depth Elevation

Earthquake Activity

City Distance Mag. Time & Date
Minimum magnitude displayed is 2.5.

Coastal Water Temperatures

Place Temperature

Stations

Nearby Weather Stations

Station Location Temp. Windchill Dew Point Humidity Wind Precip. Elev Updated Type
                   

Watches & Warnings

There are currently no watches in effect.